Terminal Aerodrome Forecast
Issued by NWS

Home | Current Version | Previous Version | Text Only | Print | Product List | Glossary On
Versions: 1 2 3 4 5 6 7 8 9 10 11 12 13 14 15
000
FTUS43 KAPX 290952 AAC
TAFPLN
TAF AMD
KPLN 290952Z 2910/3006 15004KT P6SM VCSH BKN040 OVC060
      WS020/19030KT
     FM291100 16004KT 2SM -SN OVC025
     FM291600 30009KT P6SM VCSH OVC018
     FM292000 32016G26KT P6SM OVC025=

USA.gov is the U.S. government's official web portal to all federal, state and local government web resources and services.